Terminal Aerodrome Forecast
Issued by NWS

Home | Current Version | Previous Version | Text Only | Print | Product List | Glossary On
Versions: 1 2 3 4 5 6 7 8 9 10 11 12 13 14 15 16 17 18 19 20 21 22 23 24 25 26 27 28 29 30 31 32
000
FTUS45 KREV 201723
TAFRNO
TAF
KRNO 201723Z 2018/2118 21008KT 2SM -SN OVC010
     FM201830 21008KT 5SM -SHSN SCT020 BKN035
     FM202100 18012G22KT P6SM VCSH SCT025 BKN040
     FM210500 23010KT P6SM VCSH FEW030 BKN060=

USA.gov is the U.S. government's official web portal to all federal, state and local government web resources and services.